sensor_id;sensor_type;location;lat;lon;timestamp;P1;durP1;ratioP1;P2;durP2;ratioP2
67979;SDS011;54760;47.490;19.030;2022-12-18T00:00:41;32.03;;;15.02;;
67979;SDS011;54760;47.490;19.030;2022-12-18T00:03:07;36.83;;;15.00;;
67979;SDS011;54760;47.490;19.030;2022-12-18T00:05:33;38.63;;;15.90;;
67979;SDS011;54760;47.490;19.030;2022-12-18T00:07:58;33.42;;;14.43;;
67979;SDS011;54760;47.490;19.030;2022-12-18T00:10:24;33.40;;;15.27;;
67979;SDS011;54760;47.490;19.030;2022-12-18T00:12:49;39.67;;;15.55;;
67979;SDS011;54760;47.490;19.030;2022-12-18T00:15:15;31.37;;;13.93;;
67979;SDS011;54760;47.490;19.030;2022-12-18T00:17:40;32.38;;;13.73;;
67979;SDS011;54760;47.490;19.030;2022-12-18T00:20:06;35.38;;;15.80;;
67979;SDS011;54760;47.490;19.030;2022-12-18T00:22:31;37.50;;;14.30;;
67979;SDS011;54760;47.490;19.030;2022-12-18T00:24:57;31.95;;;13.68;;
67979;SDS011;54760;47.490;19.030;2022-12-18T00:27:22;34.75;;;14.90;;
67979;SDS011;54760;47.490;19.030;2022-12-18T00:29:48;29.27;;;14.90;;
67979;SDS011;54760;47.490;19.030;2022-12-18T00:32:13;34.28;;;15.40;;
67979;SDS011;54760;47.490;19.030;2022-12-18T00:34:39;35.55;;;14.60;;
67979;SDS011;54760;47.490;19.030;2022-12-18T00:37:04;34.70;;;14.30;;
67979;SDS011;54760;47.490;19.030;2022-12-18T00:39:29;31.58;;;13.93;;
67979;SDS011;54760;47.490;19.030;2022-12-18T00:41:55;30.58;;;12.60;;
67979;SDS011;54760;47.490;19.030;2022-12-18T00:44:38;21.95;;;10.55;;
67979;SDS011;54760;47.490;19.030;2022-12-18T00:47:04;27.90;;;13.95;;
67979;SDS011;54760;47.490;19.030;2022-12-18T00:49:29;32.47;;;12.82;;
67979;SDS011;54760;47.490;19.030;2022-12-18T00:51:54;32.45;;;14.15;;
67979;SDS011;54760;47.490;19.030;2022-12-18T00:54:20;28.30;;;13.68;;
67979;SDS011;54760;47.490;19.030;2022-12-18T00:56:45;28.95;;;13.40;;
67979;SDS011;54760;47.490;19.030;2022-12-18T00:59:10;34.72;;;13.57;;
67979;SDS011;54760;47.490;19.030;2022-12-18T01:01:36;28.27;;;12.13;;
67979;SDS011;54760;47.490;19.030;2022-12-18T01:04:02;30.17;;;13.18;;
67979;SDS011;54760;47.490;19.030;2022-12-18T01:06:28;32.03;;;14.35;;
67979;SDS011;54760;47.490;19.030;2022-12-18T01:08:54;28.45;;;13.48;;
67979;SDS011;54760;47.490;19.030;2022-12-18T01:11:20;32.88;;;13.93;;
67979;SDS011;54760;47.490;19.030;2022-12-18T01:13:46;34.05;;;14.13;;
67979;SDS011;54760;47.490;19.030;2022-12-18T01:16:13;28.98;;;12.82;;
67979;SDS011;54760;47.490;19.030;2022-12-18T01:18:40;30.75;;;14.05;;
67979;SDS011;54760;47.490;19.030;2022-12-18T01:21:07;29.23;;;13.23;;
67979;SDS011;54760;47.490;19.030;2022-12-18T01:23:33;35.38;;;14.98;;
67979;SDS011;54760;47.490;19.030;2022-12-18T01:26:03;30.23;;;13.25;;
67979;SDS011;54760;47.490;19.030;2022-12-18T01:28:33;30.92;;;13.55;;
67979;SDS011;54760;47.490;19.030;2022-12-18T01:31:08;29.30;;;13.88;;
67979;SDS011;54760;47.490;19.030;2022-12-18T01:33:35;30.80;;;13.90;;
67979;SDS011;54760;47.490;19.030;2022-12-18T01:36:00;32.05;;;14.57;;
67979;SDS011;54760;47.490;19.030;2022-12-18T01:38:26;30.50;;;14.18;;
67979;SDS011;54760;47.490;19.030;2022-12-18T01:40:57;32.10;;;14.10;;
67979;SDS011;54760;47.490;19.030;2022-12-18T01:46:10;32.25;;;14.52;;
67979;SDS011;54760;47.490;19.030;2022-12-18T01:48:35;31.92;;;13.85;;
67979;SDS011;54760;47.490;19.030;2022-12-18T01:51:01;35.45;;;15.20;;
67979;SDS011;54760;47.490;19.030;2022-12-18T01:53:27;32.47;;;14.25;;
67979;SDS011;54760;47.490;19.030;2022-12-18T01:55:53;31.15;;;14.75;;
67979;SDS011;54760;47.490;19.030;2022-12-18T01:58:27;32.50;;;13.43;;
67979;SDS011;54760;47.490;19.030;2022-12-18T02:01:01;33.28;;;13.25;;
67979;SDS011;54760;47.490;19.030;2022-12-18T02:03:26;29.92;;;14.40;;
67979;SDS011;54760;47.490;19.030;2022-12-18T02:05:55;28.77;;;13.45;;
67979;SDS011;54760;47.490;19.030;2022-12-18T02:11:06;32.40;;;14.43;;
67979;SDS011;54760;47.490;19.030;2022-12-18T02:13:46;28.50;;;13.40;;
67979;SDS011;54760;47.490;19.030;2022-12-18T02:16:32;30.73;;;13.02;;
67979;SDS011;54760;47.490;19.030;2022-12-18T02:19:01;28.20;;;13.20;;
67979;SDS011;54760;47.490;19.030;2022-12-18T02:21:46;29.85;;;13.35;;
67979;SDS011;54760;47.490;19.030;2022-12-18T02:27:06;29.27;;;13.20;;
67979;SDS011;54760;47.490;19.030;2022-12-18T02:29:48;30.12;;;14.07;;
67979;SDS011;54760;47.490;19.030;2022-12-18T02:32:24;28.00;;;12.95;;
67979;SDS011;54760;47.490;19.030;2022-12-18T02:34:53;34.38;;;14.32;;
67979;SDS011;54760;47.490;19.030;2022-12-18T02:37:21;34.80;;;14.75;;
67979;SDS011;54760;47.490;19.030;2022-12-18T02:39:48;33.40;;;13.93;;
67979;SDS011;54760;47.490;19.030;2022-12-18T02:42:16;30.23;;;13.80;;
67979;SDS011;54760;47.490;19.030;2022-12-18T02:44:47;31.62;;;13.65;;
67979;SDS011;54760;47.490;19.030;2022-12-18T02:47:15;32.70;;;13.90;;
67979;SDS011;54760;47.490;19.030;2022-12-18T02:49:53;34.00;;;15.40;;
67979;SDS011;54760;47.490;19.030;2022-12-18T03:00:18;33.58;;;13.85;;
67979;SDS011;54760;47.490;19.030;2022-12-18T03:02:55;31.77;;;15.02;;
67979;SDS011;54760;47.490;19.030;2022-12-18T03:08:17;34.17;;;14.05;;
67979;SDS011;54760;47.490;19.030;2022-12-18T03:10:54;32.72;;;14.73;;
67979;SDS011;54760;47.490;19.030;2022-12-18T03:13:27;31.75;;;15.05;;
67979;SDS011;54760;47.490;19.030;2022-12-18T03:15:57;31.80;;;14.93;;
67979;SDS011;54760;47.490;19.030;2022-12-18T03:18:46;39.08;;;14.00;;
67979;SDS011;54760;47.490;19.030;2022-12-18T03:21:17;30.90;;;14.43;;
67979;SDS011;54760;47.490;19.030;2022-12-18T03:23:57;35.17;;;15.07;;
67979;SDS011;54760;47.490;19.030;2022-12-18T03:26:23;31.20;;;14.70;;
67979;SDS011;54760;47.490;19.030;2022-12-18T03:28:53;35.28;;;13.93;;
67979;SDS011;54760;47.490;19.030;2022-12-18T03:31:24;28.95;;;14.18;;
67979;SDS011;54760;47.490;19.030;2022-12-18T03:36:20;26.87;;;13.18;;
67979;SDS011;54760;47.490;19.030;2022-12-18T03:38:46;32.13;;;14.13;;
67979;SDS011;54760;47.490;19.030;2022-12-18T03:41:19;33.60;;;14.27;;
67979;SDS011;54760;47.490;19.030;2022-12-18T03:43:52;31.62;;;14.57;;
67979;SDS011;54760;47.490;19.030;2022-12-18T03:46:25;32.83;;;14.43;;
67979;SDS011;54760;47.490;19.030;2022-12-18T03:48:59;31.23;;;13.57;;
67979;SDS011;54760;47.490;19.030;2022-12-18T03:51:36;33.22;;;14.23;;
67979;SDS011;54760;47.490;19.030;2022-12-18T03:54:22;33.55;;;13.90;;
67979;SDS011;54760;47.490;19.030;2022-12-18T03:56:58;31.25;;;14.18;;
67979;SDS011;54760;47.490;19.030;2022-12-18T03:59:27;29.23;;;13.25;;
67979;SDS011;54760;47.490;19.030;2022-12-18T04:01:55;33.13;;;13.85;;
67979;SDS011;54760;47.490;19.030;2022-12-18T04:04:23;30.73;;;13.57;;
67979;SDS011;54760;47.490;19.030;2022-12-18T04:06:51;33.30;;;14.25;;
67979;SDS011;54760;47.490;19.030;2022-12-18T04:09:17;29.05;;;12.93;;
67979;SDS011;54760;47.490;19.030;2022-12-18T04:11:44;32.88;;;13.90;;
67979;SDS011;54760;47.490;19.030;2022-12-18T04:14:10;33.83;;;14.30;;
67979;SDS011;54760;47.490;19.030;2022-12-18T04:16:36;34.90;;;13.73;;
67979;SDS011;54760;47.490;19.030;2022-12-18T04:19:02;38.00;;;15.43;;
67979;SDS011;54760;47.490;19.030;2022-12-18T04:21:27;33.40;;;15.18;;
67979;SDS011;54760;47.490;19.030;2022-12-18T04:23:53;30.23;;;14.55;;
67979;SDS011;54760;47.490;19.030;2022-12-18T04:26:18;33.90;;;15.15;;
67979;SDS011;54760;47.490;19.030;2022-12-18T04:28:43;36.58;;;15.27;;
67979;SDS011;54760;47.490;19.030;2022-12-18T04:31:09;31.00;;;14.82;;
67979;SDS011;54760;47.490;19.030;2022-12-18T04:33:34;34.00;;;14.45;;
67979;SDS011;54760;47.490;19.030;2022-12-18T04:36:00;35.47;;;15.15;;
67979;SDS011;54760;47.490;19.030;2022-12-18T04:38:25;33.50;;;14.98;;
67979;SDS011;54760;47.490;19.030;2022-12-18T04:40:50;34.05;;;14.82;;
67979;SDS011;54760;47.490;19.030;2022-12-18T04:43:16;29.98;;;13.75;;
67979;SDS011;54760;47.490;19.030;2022-12-18T04:45:41;33.17;;;14.98;;
67979;SDS011;54760;47.490;19.030;2022-12-18T04:48:06;29.63;;;13.77;;
67979;SDS011;54760;47.490;19.030;2022-12-18T04:50:32;32.22;;;12.82;;
67979;SDS011;54760;47.490;19.030;2022-12-18T04:52:57;27.98;;;13.50;;
67979;SDS011;54760;47.490;19.030;2022-12-18T04:55:23;32.17;;;13.73;;
67979;SDS011;54760;47.490;19.030;2022-12-18T04:57:48;30.30;;;14.18;;
67979;SDS011;54760;47.490;19.030;2022-12-18T05:00:13;31.30;;;13.43;;
67979;SDS011;54760;47.490;19.030;2022-12-18T05:02:39;28.58;;;13.57;;
67979;SDS011;54760;47.490;19.030;2022-12-18T05:05:05;30.35;;;13.38;;
67979;SDS011;54760;47.490;19.030;2022-12-18T05:07:31;31.45;;;13.32;;
67979;SDS011;54760;47.490;19.030;2022-12-18T05:09:56;30.55;;;13.80;;
67979;SDS011;54760;47.490;19.030;2022-12-18T05:12:21;29.45;;;13.75;;
67979;SDS011;54760;47.490;19.030;2022-12-18T05:14:47;29.80;;;12.50;;
67979;SDS011;54760;47.490;19.030;2022-12-18T05:17:12;25.62;;;12.65;;
67979;SDS011;54760;47.490;19.030;2022-12-18T05:19:37;32.80;;;13.77;;
67979;SDS011;54760;47.490;19.030;2022-12-18T05:22:03;28.65;;;12.90;;
67979;SDS011;54760;47.490;19.030;2022-12-18T05:24:28;30.70;;;13.95;;
67979;SDS011;54760;47.490;19.030;2022-12-18T05:26:54;32.33;;;14.77;;
67979;SDS011;54760;47.490;19.030;2022-12-18T05:29:19;33.33;;;14.63;;
67979;SDS011;54760;47.490;19.030;2022-12-18T05:31:44;34.28;;;14.55;;
67979;SDS011;54760;47.490;19.030;2022-12-18T05:34:10;29.02;;;14.02;;
67979;SDS011;54760;47.490;19.030;2022-12-18T05:36:35;29.48;;;14.02;;
67979;SDS011;54760;47.490;19.030;2022-12-18T05:39:01;28.60;;;13.00;;
67979;SDS011;54760;47.490;19.030;2022-12-18T05:41:26;32.42;;;14.20;;
67979;SDS011;54760;47.490;19.030;2022-12-18T05:43:52;29.60;;;14.27;;
67979;SDS011;54760;47.490;19.030;2022-12-18T05:46:17;30.77;;;14.07;;
67979;SDS011;54760;47.490;19.030;2022-12-18T05:48:43;30.20;;;14.15;;
67979;SDS011;54760;47.490;19.030;2022-12-18T05:51:10;29.85;;;13.88;;
67979;SDS011;54760;47.490;19.030;2022-12-18T05:53:37;31.77;;;14.30;;
67979;SDS011;54760;47.490;19.030;2022-12-18T05:56:04;33.45;;;14.15;;
67979;SDS011;54760;47.490;19.030;2022-12-18T05:58:31;31.48;;;14.30;;
67979;SDS011;54760;47.490;19.030;2022-12-18T06:00:57;33.72;;;14.68;;
67979;SDS011;54760;47.490;19.030;2022-12-18T06:03:23;33.13;;;14.85;;
67979;SDS011;54760;47.490;19.030;2022-12-18T06:05:49;30.00;;;13.93;;
67979;SDS011;54760;47.490;19.030;2022-12-18T06:08:14;32.78;;;14.13;;
67979;SDS011;54760;47.490;19.030;2022-12-18T06:10:40;33.47;;;14.25;;
67979;SDS011;54760;47.490;19.030;2022-12-18T06:13:06;29.55;;;13.50;;
67979;SDS011;54760;47.490;19.030;2022-12-18T06:15:32;28.50;;;13.30;;
67979;SDS011;54760;47.490;19.030;2022-12-18T06:17:57;32.15;;;14.00;;
67979;SDS011;54760;47.490;19.030;2022-12-18T06:20:23;28.52;;;12.73;;
67979;SDS011;54760;47.490;19.030;2022-12-18T06:22:48;31.20;;;12.05;;
67979;SDS011;54760;47.490;19.030;2022-12-18T06:25:14;26.37;;;12.85;;
67979;SDS011;54760;47.490;19.030;2022-12-18T06:27:40;28.77;;;12.63;;
67979;SDS011;54760;47.490;19.030;2022-12-18T06:30:06;26.98;;;12.18;;
67979;SDS011;54760;47.490;19.030;2022-12-18T06:32:32;26.87;;;11.82;;
67979;SDS011;54760;47.490;19.030;2022-12-18T06:34:57;28.27;;;11.05;;
67979;SDS011;54760;47.490;19.030;2022-12-18T06:37:23;24.02;;;10.88;;
67979;SDS011;54760;47.490;19.030;2022-12-18T06:39:51;31.37;;;12.90;;
67979;SDS011;54760;47.490;19.030;2022-12-18T06:42:17;28.27;;;12.93;;
67979;SDS011;54760;47.490;19.030;2022-12-18T06:44:43;25.75;;;12.07;;
67979;SDS011;54760;47.490;19.030;2022-12-18T06:47:08;29.83;;;12.15;;
67979;SDS011;54760;47.490;19.030;2022-12-18T06:49:34;25.67;;;11.27;;
67979;SDS011;54760;47.490;19.030;2022-12-18T06:51:59;26.95;;;11.43;;
67979;SDS011;54760;47.490;19.030;2022-12-18T06:54:24;26.17;;;11.00;;
67979;SDS011;54760;47.490;19.030;2022-12-18T06:56:50;26.08;;;12.07;;
67979;SDS011;54760;47.490;19.030;2022-12-18T06:59:15;27.15;;;11.95;;
67979;SDS011;54760;47.490;19.030;2022-12-18T07:01:40;26.23;;;11.18;;
67979;SDS011;54760;47.490;19.030;2022-12-18T07:04:06;27.52;;;11.10;;
67979;SDS011;54760;47.490;19.030;2022-12-18T07:06:31;24.00;;;10.93;;
67979;SDS011;54760;47.490;19.030;2022-12-18T07:08:57;25.42;;;10.38;;
67979;SDS011;54760;47.490;19.030;2022-12-18T07:11:22;23.52;;;10.40;;
67979;SDS011;54760;47.490;19.030;2022-12-18T07:13:48;22.60;;;10.80;;
67979;SDS011;54760;47.490;19.030;2022-12-18T07:16:14;25.98;;;10.93;;
67979;SDS011;54760;47.490;19.030;2022-12-18T07:18:41;20.52;;;10.02;;
67979;SDS011;54760;47.490;19.030;2022-12-18T07:21:08;21.17;;;9.60;;
67979;SDS011;54760;47.490;19.030;2022-12-18T07:23:35;20.70;;;9.93;;
67979;SDS011;54760;47.490;19.030;2022-12-18T07:26:02;23.33;;;10.50;;
67979;SDS011;54760;47.490;19.030;2022-12-18T07:28:32;20.30;;;10.35;;
67979;SDS011;54760;47.490;19.030;2022-12-18T07:30:58;27.10;;;9.80;;
67979;SDS011;54760;47.490;19.030;2022-12-18T07:33:28;25.58;;;10.77;;
67979;SDS011;54760;47.490;19.030;2022-12-18T07:35:53;23.05;;;10.02;;
67979;SDS011;54760;47.490;19.030;2022-12-18T07:38:18;26.20;;;11.10;;
67979;SDS011;54760;47.490;19.030;2022-12-18T07:40:44;23.38;;;10.75;;
67979;SDS011;54760;47.490;19.030;2022-12-18T07:43:09;22.98;;;10.30;;
67979;SDS011;54760;47.490;19.030;2022-12-18T07:45:34;23.25;;;11.00;;
67979;SDS011;54760;47.490;19.030;2022-12-18T07:48:00;21.37;;;10.50;;
67979;SDS011;54760;47.490;19.030;2022-12-18T07:50:25;23.75;;;11.20;;
67979;SDS011;54760;47.490;19.030;2022-12-18T07:52:50;25.27;;;12.55;;
67979;SDS011;54760;47.490;19.030;2022-12-18T07:55:16;33.30;;;14.13;;
67979;SDS011;54760;47.490;19.030;2022-12-18T07:57:41;31.98;;;14.55;;
67979;SDS011;54760;47.490;19.030;2022-12-18T08:00:07;38.35;;;17.27;;
67979;SDS011;54760;47.490;19.030;2022-12-18T08:02:33;40.70;;;17.80;;
67979;SDS011;54760;47.490;19.030;2022-12-18T08:04:58;37.67;;;17.05;;
67979;SDS011;54760;47.490;19.030;2022-12-18T08:07:23;41.30;;;18.65;;
67979;SDS011;54760;47.490;19.030;2022-12-18T08:09:49;39.88;;;19.12;;
67979;SDS011;54760;47.490;19.030;2022-12-18T08:12:14;36.95;;;16.83;;
67979;SDS011;54760;47.490;19.030;2022-12-18T08:14:40;41.50;;;19.25;;
67979;SDS011;54760;47.490;19.030;2022-12-18T08:17:05;38.20;;;16.90;;
67979;SDS011;54760;47.490;19.030;2022-12-18T08:19:30;41.78;;;18.90;;
67979;SDS011;54760;47.490;19.030;2022-12-18T08:21:56;39.55;;;18.48;;
67979;SDS011;54760;47.490;19.030;2022-12-18T08:24:22;42.45;;;18.48;;
67979;SDS011;54760;47.490;19.030;2022-12-18T08:26:47;41.88;;;19.05;;
67979;SDS011;54760;47.490;19.030;2022-12-18T08:29:12;37.50;;;18.45;;
67979;SDS011;54760;47.490;19.030;2022-12-18T08:31:38;41.45;;;17.80;;
67979;SDS011;54760;47.490;19.030;2022-12-18T08:34:03;43.75;;;19.17;;
67979;SDS011;54760;47.490;19.030;2022-12-18T08:36:28;40.33;;;17.37;;
67979;SDS011;54760;47.490;19.030;2022-12-18T08:38:54;42.50;;;19.20;;
67979;SDS011;54760;47.490;19.030;2022-12-18T08:41:20;46.30;;;18.92;;
67979;SDS011;54760;47.490;19.030;2022-12-18T08:43:47;39.05;;;18.77;;
67979;SDS011;54760;47.490;19.030;2022-12-18T08:46:35;40.50;;;18.80;;
67979;SDS011;54760;47.490;19.030;2022-12-18T08:49:03;40.35;;;18.75;;
67979;SDS011;54760;47.490;19.030;2022-12-18T08:51:29;41.08;;;19.30;;
67979;SDS011;54760;47.490;19.030;2022-12-18T08:53:54;42.47;;;18.12;;
67979;SDS011;54760;47.490;19.030;2022-12-18T08:56:20;40.05;;;17.87;;
67979;SDS011;54760;47.490;19.030;2022-12-18T08:58:45;43.70;;;18.83;;
67979;SDS011;54760;47.490;19.030;2022-12-18T09:01:11;41.90;;;19.33;;
67979;SDS011;54760;47.490;19.030;2022-12-18T09:03:38;37.20;;;17.15;;
67979;SDS011;54760;47.490;19.030;2022-12-18T09:06:04;36.58;;;17.90;;
67979;SDS011;54760;47.490;19.030;2022-12-18T09:08:30;38.35;;;17.45;;
67979;SDS011;54760;47.490;19.030;2022-12-18T09:10:56;37.65;;;18.15;;
67979;SDS011;54760;47.490;19.030;2022-12-18T09:13:21;37.97;;;17.83;;
67979;SDS011;54760;47.490;19.030;2022-12-18T09:15:48;40.58;;;17.83;;
67979;SDS011;54760;47.490;19.030;2022-12-18T09:18:17;39.85;;;17.92;;
67979;SDS011;54760;47.490;19.030;2022-12-18T09:20:44;42.47;;;19.33;;
67979;SDS011;54760;47.490;19.030;2022-12-18T09:23:11;34.80;;;17.23;;
67979;SDS011;54760;47.490;19.030;2022-12-18T09:25:36;34.55;;;18.25;;
67979;SDS011;54760;47.490;19.030;2022-12-18T09:28:03;37.20;;;18.33;;
67979;SDS011;54760;47.490;19.030;2022-12-18T09:30:37;35.58;;;16.77;;
67979;SDS011;54760;47.490;19.030;2022-12-18T09:33:03;38.55;;;17.67;;
67979;SDS011;54760;47.490;19.030;2022-12-18T09:35:28;36.28;;;16.90;;
67979;SDS011;54760;47.490;19.030;2022-12-18T09:37:54;35.47;;;16.55;;
67979;SDS011;54760;47.490;19.030;2022-12-18T09:40:21;35.95;;;17.00;;
67979;SDS011;54760;47.490;19.030;2022-12-18T09:42:59;36.60;;;17.55;;
67979;SDS011;54760;47.490;19.030;2022-12-18T09:45:28;35.45;;;16.92;;
67979;SDS011;54760;47.490;19.030;2022-12-18T09:50:31;34.15;;;15.50;;
67979;SDS011;54760;47.490;19.030;2022-12-18T09:53:02;37.63;;;17.87;;
67979;SDS011;54760;47.490;19.030;2022-12-18T09:55:43;39.03;;;16.98;;
67979;SDS011;54760;47.490;19.030;2022-12-18T09:58:20;37.00;;;17.62;;
67979;SDS011;54760;47.490;19.030;2022-12-18T10:00:53;39.50;;;18.73;;
67979;SDS011;54760;47.490;19.030;2022-12-18T10:03:20;43.40;;;19.67;;
67979;SDS011;54760;47.490;19.030;2022-12-18T10:08:39;39.20;;;17.10;;
67979;SDS011;54760;47.490;19.030;2022-12-18T10:14:09;40.05;;;17.77;;
67979;SDS011;54760;47.490;19.030;2022-12-18T10:22:36;45.45;;;18.62;;
67979;SDS011;54760;47.490;19.030;2022-12-18T10:24:49;239.15;;;26.52;;
67979;SDS011;54760;47.490;19.030;2022-12-18T10:27:23;39.45;;;17.80;;
67979;SDS011;54760;47.490;19.030;2022-12-18T10:29:51;39.72;;;17.85;;
67979;SDS011;54760;47.490;19.030;2022-12-18T10:32:18;116.37;;;21.17;;
67979;SDS011;54760;47.490;19.030;2022-12-18T10:34:47;104.80;;;22.45;;
67979;SDS011;54760;47.490;19.030;2022-12-18T10:37:15;41.90;;;18.05;;
67979;SDS011;54760;47.490;19.030;2022-12-18T10:42:41;40.38;;;17.70;;
67979;SDS011;54760;47.490;19.030;2022-12-18T10:45:13;38.38;;;16.85;;
67979;SDS011;54760;47.490;19.030;2022-12-18T10:47:46;35.25;;;17.60;;
67979;SDS011;54760;47.490;19.030;2022-12-18T10:52:59;38.83;;;16.73;;
67979;SDS011;54760;47.490;19.030;2022-12-18T10:55:31;35.67;;;16.62;;
67979;SDS011;54760;47.490;19.030;2022-12-18T10:58:23;38.53;;;17.87;;
67979;SDS011;54760;47.490;19.030;2022-12-18T11:01:04;39.42;;;17.50;;
67979;SDS011;54760;47.490;19.030;2022-12-18T11:06:21;42.95;;;18.08;;
67979;SDS011;54760;47.490;19.030;2022-12-18T11:11:23;38.80;;;18.55;;
67979;SDS011;54760;47.490;19.030;2022-12-18T11:13:58;38.92;;;17.87;;
67979;SDS011;54760;47.490;19.030;2022-12-18T11:16:26;36.28;;;18.25;;
67979;SDS011;54760;47.490;19.030;2022-12-18T11:18:53;35.40;;;17.17;;
67979;SDS011;54760;47.490;19.030;2022-12-18T11:21:19;38.80;;;18.15;;
67979;SDS011;54760;47.490;19.030;2022-12-18T11:23:51;38.50;;;18.27;;
67979;SDS011;54760;47.490;19.030;2022-12-18T11:26:18;38.38;;;18.92;;
67979;SDS011;54760;47.490;19.030;2022-12-18T11:33:41;41.72;;;18.87;;
67979;SDS011;54760;47.490;19.030;2022-12-18T11:36:09;46.78;;;18.90;;
67979;SDS011;54760;47.490;19.030;2022-12-18T11:38:36;39.35;;;18.92;;
67979;SDS011;54760;47.490;19.030;2022-12-18T11:44:32;35.58;;;17.05;;
67979;SDS011;54760;47.490;19.030;2022-12-18T11:47:09;40.45;;;18.27;;
67979;SDS011;54760;47.490;19.030;2022-12-18T11:49:45;34.33;;;16.55;;
67979;SDS011;54760;47.490;19.030;2022-12-18T11:52:36;35.65;;;17.17;;
67979;SDS011;54760;47.490;19.030;2022-12-18T11:55:07;41.05;;;18.20;;
67979;SDS011;54760;47.490;19.030;2022-12-18T12:00:22;39.95;;;17.80;;
67979;SDS011;54760;47.490;19.030;2022-12-18T12:02:54;34.33;;;15.88;;
67979;SDS011;54760;47.490;19.030;2022-12-18T12:16:04;34.53;;;17.15;;
67979;SDS011;54760;47.490;19.030;2022-12-18T12:18:42;36.67;;;16.20;;
67979;SDS011;54760;47.490;19.030;2022-12-18T12:26:56;32.15;;;15.05;;
67979;SDS011;54760;47.490;19.030;2022-12-18T12:29:50;29.75;;;14.82;;
67979;SDS011;54760;47.490;19.030;2022-12-18T12:32:36;29.92;;;15.07;;
67979;SDS011;54760;47.490;19.030;2022-12-18T12:38:04;32.10;;;15.57;;
67979;SDS011;54760;47.490;19.030;2022-12-18T12:40:31;28.85;;;14.57;;
67979;SDS011;54760;47.490;19.030;2022-12-18T12:43:24;31.62;;;14.32;;
67979;SDS011;54760;47.490;19.030;2022-12-18T12:45:56;28.62;;;14.80;;
67979;SDS011;54760;47.490;19.030;2022-12-18T12:51:02;26.85;;;13.15;;
67979;SDS011;54760;47.490;19.030;2022-12-18T12:53:35;25.00;;;13.27;;
67979;SDS011;54760;47.490;19.030;2022-12-18T12:56:03;29.98;;;15.25;;
67979;SDS011;54760;47.490;19.030;2022-12-18T13:01:26;32.53;;;15.32;;
67979;SDS011;54760;47.490;19.030;2022-12-18T13:06:44;32.53;;;16.87;;
67979;SDS011;54760;47.490;19.030;2022-12-18T13:09:30;35.78;;;17.90;;
67979;SDS011;54760;47.490;19.030;2022-12-18T13:12:01;37.22;;;19.08;;
67979;SDS011;54760;47.490;19.030;2022-12-18T13:14:47;39.33;;;18.87;;
67979;SDS011;54760;47.490;19.030;2022-12-18T13:19:44;41.67;;;20.23;;
67979;SDS011;54760;47.490;19.030;2022-12-18T13:22:44;38.97;;;20.30;;
67979;SDS011;54760;47.490;19.030;2022-12-18T13:25:26;39.13;;;19.25;;
67979;SDS011;54760;47.490;19.030;2022-12-18T13:38:35;47.72;;;23.20;;
67979;SDS011;54760;47.490;19.030;2022-12-18T13:41:21;46.60;;;23.67;;
67979;SDS011;54760;47.490;19.030;2022-12-18T13:43:52;47.17;;;22.23;;
67979;SDS011;54760;47.490;19.030;2022-12-18T13:46:28;41.40;;;22.05;;
67979;SDS011;54760;47.490;19.030;2022-12-18T13:51:42;48.78;;;24.30;;
67979;SDS011;54760;47.490;19.030;2022-12-18T13:56:45;47.75;;;23.40;;
67979;SDS011;54760;47.490;19.030;2022-12-18T14:01:53;47.75;;;23.15;;
67979;SDS011;54760;47.490;19.030;2022-12-18T14:04:22;47.28;;;23.08;;
67979;SDS011;54760;47.490;19.030;2022-12-18T14:06:54;47.55;;;23.75;;
67979;SDS011;54760;47.490;19.030;2022-12-18T14:09:24;50.95;;;23.02;;
67979;SDS011;54760;47.490;19.030;2022-12-18T14:11:55;46.83;;;23.83;;
67979;SDS011;54760;47.490;19.030;2022-12-18T14:14:45;47.08;;;22.75;;
67979;SDS011;54760;47.490;19.030;2022-12-18T14:17:12;50.85;;;24.20;;
67979;SDS011;54760;47.490;19.030;2022-12-18T14:19:46;49.22;;;22.95;;
67979;SDS011;54760;47.490;19.030;2022-12-18T14:22:15;50.58;;;24.33;;
67979;SDS011;54760;47.490;19.030;2022-12-18T14:24:42;50.25;;;23.12;;
67979;SDS011;54760;47.490;19.030;2022-12-18T14:27:26;49.13;;;24.27;;
67979;SDS011;54760;47.490;19.030;2022-12-18T14:29:51;48.80;;;24.00;;
67979;SDS011;54760;47.490;19.030;2022-12-18T14:32:18;43.95;;;22.98;;
67979;SDS011;54760;47.490;19.030;2022-12-18T14:34:51;51.40;;;23.48;;
67979;SDS011;54760;47.490;19.030;2022-12-18T14:37:21;44.83;;;22.90;;
67979;SDS011;54760;47.490;19.030;2022-12-18T14:40:02;47.97;;;22.50;;
67979;SDS011;54760;47.490;19.030;2022-12-18T14:42:30;44.67;;;21.73;;
67979;SDS011;54760;47.490;19.030;2022-12-18T14:47:59;48.85;;;22.30;;
67979;SDS011;54760;47.490;19.030;2022-12-18T14:50:25;50.65;;;23.65;;
67979;SDS011;54760;47.490;19.030;2022-12-18T14:52:51;52.17;;;23.05;;
67979;SDS011;54760;47.490;19.030;2022-12-18T14:55:17;50.72;;;22.75;;
67979;SDS011;54760;47.490;19.030;2022-12-18T14:57:45;48.28;;;22.62;;
67979;SDS011;54760;47.490;19.030;2022-12-18T15:00:19;47.72;;;23.20;;
67979;SDS011;54760;47.490;19.030;2022-12-18T15:02:54;51.25;;;23.40;;
67979;SDS011;54760;47.490;19.030;2022-12-18T15:05:25;46.75;;;23.55;;
67979;SDS011;54760;47.490;19.030;2022-12-18T15:07:53;50.85;;;24.25;;
67979;SDS011;54760;47.490;19.030;2022-12-18T15:10:21;48.95;;;23.83;;
67979;SDS011;54760;47.490;19.030;2022-12-18T15:12:49;51.92;;;23.58;;
67979;SDS011;54760;47.490;19.030;2022-12-18T15:18:03;55.58;;;24.50;;
67979;SDS011;54760;47.490;19.030;2022-12-18T15:25:59;48.20;;;23.00;;
67979;SDS011;54760;47.490;19.030;2022-12-18T15:28:36;48.15;;;23.52;;
67979;SDS011;54760;47.490;19.030;2022-12-18T15:33:39;49.50;;;24.35;;
67979;SDS011;54760;47.490;19.030;2022-12-18T15:36:15;51.35;;;24.08;;
67979;SDS011;54760;47.490;19.030;2022-12-18T15:38:45;53.33;;;24.27;;
67979;SDS011;54760;47.490;19.030;2022-12-18T15:41:16;53.80;;;25.52;;
67979;SDS011;54760;47.490;19.030;2022-12-18T15:43:43;52.45;;;25.42;;
67979;SDS011;54760;47.490;19.030;2022-12-18T15:46:13;58.30;;;26.87;;
67979;SDS011;54760;47.490;19.030;2022-12-18T15:48:50;52.95;;;25.42;;
67979;SDS011;54760;47.490;19.030;2022-12-18T15:53:42;55.03;;;25.75;;
67979;SDS011;54760;47.490;19.030;2022-12-18T15:56:13;56.03;;;25.95;;
67979;SDS011;54760;47.490;19.030;2022-12-18T15:59:04;52.62;;;26.02;;
67979;SDS011;54760;47.490;19.030;2022-12-18T16:01:36;53.67;;;25.20;;
67979;SDS011;54760;47.490;19.030;2022-12-18T16:04:01;52.05;;;24.30;;
67979;SDS011;54760;47.490;19.030;2022-12-18T16:06:27;56.00;;;27.08;;
67979;SDS011;54760;47.490;19.030;2022-12-18T16:08:52;51.42;;;25.23;;
67979;SDS011;54760;47.490;19.030;2022-12-18T16:11:22;51.28;;;25.35;;
67979;SDS011;54760;47.490;19.030;2022-12-18T16:14:24;51.37;;;24.17;;
67979;SDS011;54760;47.490;19.030;2022-12-18T16:16:53;54.17;;;23.95;;
67979;SDS011;54760;47.490;19.030;2022-12-18T16:19:19;50.97;;;24.92;;
67979;SDS011;54760;47.490;19.030;2022-12-18T16:21:49;52.30;;;25.58;;